createdAt,value
2019-02-24T00:00:04.093Z,32.6
2019-02-24T00:00:54.023Z,32.6
2019-02-24T00:01:43.608Z,32.6
2019-02-24T00:02:34.383Z,32.6
2019-02-24T00:03:24.195Z,32.5
2019-02-24T00:04:14.743Z,32.5
2019-02-24T00:05:04.048Z,32.5
2019-02-24T00:05:54.085Z,32.5
2019-02-24T00:06:44.375Z,32.5
2019-02-24T00:07:34.966Z,32.5
2019-02-24T00:08:24.794Z,32.5
2019-02-24T00:09:15.392Z,32.4
2019-02-24T00:10:04.922Z,32.4
2019-02-24T00:10:55.243Z,32.4
2019-02-24T00:11:45.563Z,32.4
2019-02-24T00:12:35.580Z,32.4
2019-02-24T00:13:25.637Z,32.4
2019-02-24T00:14:14.900Z,32.4
2019-02-24T00:15:05.510Z,32.4
2019-02-24T00:15:55.537Z,32.4
2019-02-24T00:16:45.864Z,32.4
2019-02-24T00:17:35.369Z,32.4
2019-02-24T00:18:25.699Z,32.4
2019-02-24T00:19:15.497Z,32.4
2019-02-24T00:20:05.544Z,32.4
2019-02-24T00:20:56.169Z,32.4
2019-02-24T00:21:45.682Z,32.4
2019-02-24T00:22:35.982Z,32.4
2019-02-24T00:23:26.324Z,32.3
2019-02-24T00:24:15.534Z,32.4
2019-02-24T00:25:05.975Z,32.3
2019-02-24T00:25:56.491Z,32.3
2019-02-24T00:26:46.269Z,32.3
2019-02-24T00:27:36.604Z,32.3
2019-02-24T00:28:26.398Z,32.3
2019-02-24T00:29:16.761Z,32.3
2019-02-24T00:30:06.799Z,32.3
2019-02-24T00:30:55.737Z,32.3
2019-02-24T00:31:46.958Z,32.3
2019-02-24T00:32:38.538Z,32.3
2019-02-24T00:33:27.067Z,32.3
2019-02-24T00:34:16.783Z,32.3
2019-02-24T00:35:06.848Z,32.3
2019-02-24T00:35:57.220Z,32.3
2019-02-24T00:36:46.128Z,32.3
2019-02-24T00:37:37.042Z,32.3
2019-02-24T00:38:27.070Z,32.3
2019-02-24T00:39:16.946Z,32.2
2019-02-24T00:40:07.483Z,32.2
2019-02-24T00:40:56.960Z,32.2
2019-02-24T00:41:47.295Z,32.2
2019-02-24T00:42:37.708Z,32.2
2019-02-24T00:43:26.876Z,32.2
2019-02-24T00:44:17.798Z,32.2
2019-02-24T00:45:07.265Z,32.2
2019-02-24T00:45:57.310Z,32.2
2019-02-24T00:46:47.435Z,32.2
2019-02-24T00:47:38.017Z,32.1
2019-02-24T00:48:28.085Z,32.2
2019-02-24T00:49:18.125Z,32.1
2019-02-24T00:50:07.628Z,32.1
2019-02-24T00:50:58.212Z,32.1
2019-02-24T00:51:47.751Z,32.1
2019-02-24T00:52:37.502Z,32.1
2019-02-24T00:53:27.827Z,32.1
2019-02-24T00:54:17.685Z,32.1
2019-02-24T00:55:07.473Z,32.1
2019-02-24T00:55:58.054Z,32.1
2019-02-24T00:56:47.772Z,32.1
2019-02-24T00:57:37.917Z,32.1
2019-02-24T00:58:27.407Z,32.1
2019-02-24T00:59:18.033Z,32.1
2019-02-24T01:00:08.352Z,32.1
2019-02-24T01:00:57.868Z,32
2019-02-24T01:01:48.390Z,32
2019-02-24T01:02:38.518Z,32
2019-02-24T01:03:28.017Z,32
2019-02-24T01:04:18.642Z,32
2019-02-24T01:05:08.435Z,32
2019-02-24T01:05:58.184Z,32
2019-02-24T01:06:48.545Z,32
2019-02-24T01:07:38.087Z,31.9
2019-02-24T01:08:28.090Z,32
2019-02-24T01:09:18.165Z,32
2019-02-24T01:10:08.494Z,31.9
2019-02-24T01:10:58.870Z,31.9
2019-02-24T01:11:48.607Z,31.9
2019-02-24T01:12:38.954Z,31.9
2019-02-24T01:13:28.716Z,31.9
2019-02-24T01:14:18.842Z,31.9
2019-02-24T01:15:09.396Z,31.9
2019-02-24T01:15:59.441Z,31.9
2019-02-24T01:16:49.229Z,31.9
2019-02-24T01:17:39.282Z,31.9
2019-02-24T01:18:29.056Z,31.9
2019-02-24T01:19:18.862Z,31.9
2019-02-24T01:20:09.454Z,31.9
2019-02-24T01:20:59.864Z,31.9
2019-02-24T01:21:49.572Z,31.9
2019-02-24T01:22:39.614Z,31.9
2019-02-24T01:23:29.734Z,31.9
2019-02-24T01:24:19.743Z,31.9
2019-02-24T01:25:10.130Z,31.8
2019-02-24T01:25:59.296Z,31.9
2019-02-24T01:26:50.109Z,31.8
2019-02-24T01:27:40.756Z,31.8
2019-02-24T01:28:31.528Z,31.8
2019-02-24T01:29:20.855Z,31.8
2019-02-24T01:30:10.915Z,31.8
2019-02-24T01:30:59.928Z,31.8
2019-02-24T01:31:49.973Z,31.8
2019-02-24T01:32:41.061Z,31.8
2019-02-24T01:33:30.328Z,31.8
2019-02-24T01:34:20.956Z,31.8
2019-02-24T01:35:10.745Z,31.8
2019-02-24T01:36:00.453Z,31.8
2019-02-24T01:36:51.350Z,31.8
2019-02-24T01:37:40.900Z,31.7
2019-02-24T01:38:30.973Z,31.8
2019-02-24T01:39:20.966Z,31.7
2019-02-24T01:40:11.106Z,31.7
2019-02-24T01:41:01.073Z,31.7
2019-02-24T01:41:50.944Z,31.7
2019-02-24T01:42:41.751Z,31.7
2019-02-24T01:43:31.525Z,31.7
2019-02-24T01:44:20.603Z,31.7
2019-02-24T01:45:11.454Z,31.7
2019-02-24T01:46:01.420Z,31.7
2019-02-24T01:46:51.285Z,31.7
2019-02-24T01:47:40.799Z,31.7
2019-02-24T01:48:31.860Z,31.6
2019-02-24T01:49:21.733Z,31.7
2019-02-24T01:50:12.015Z,31.6
2019-02-24T01:51:02.045Z,31.6
2019-02-24T01:51:51.352Z,31.6
2019-02-24T01:52:41.700Z,31.6
2019-02-24T01:53:32.494Z,31.6
2019-02-24T01:54:22.577Z,31.6
2019-02-24T01:55:12.049Z,31.6
2019-02-24T01:56:01.859Z,31.6
2019-02-24T01:56:51.977Z,31.6
2019-02-24T01:57:42.497Z,31.6
2019-02-24T01:58:41.084Z,31.6
2019-02-24T01:59:22.929Z,31.6
2019-02-24T02:00:12.692Z,31.6
2019-02-24T02:01:02.743Z,31.6
2019-02-24T02:01:52.784Z,31.6
2019-02-24T02:02:42.581Z,31.6
2019-02-24T02:03:32.658Z,31.6
2019-02-24T02:04:22.424Z,31.6
2019-02-24T02:05:12.749Z,31.7
2019-02-24T02:06:03.084Z,31.7
2019-02-24T02:06:52.852Z,31.7
2019-02-24T02:07:43.526Z,31.7
2019-02-24T02:08:33.287Z,31.7
2019-02-24T02:09:23.424Z,31.7
2019-02-24T02:10:13.661Z,31.7
2019-02-24T02:11:03.244Z,31.7
2019-02-24T02:11:52.984Z,31.8
2019-02-24T02:12:43.529Z,31.8
2019-02-24T02:13:33.623Z,31.8
2019-02-24T02:14:23.667Z,31.8
2019-02-24T02:15:13.706Z,31.8
2019-02-24T02:16:04.046Z,31.8
2019-02-24T02:16:54.106Z,31.8
2019-02-24T02:17:43.648Z,31.8
2019-02-24T02:18:33.696Z,31.8
2019-02-24T02:19:24.260Z,31.8
2019-02-24T02:20:14.311Z,31.8
2019-02-24T02:21:04.114Z,31.8
2019-02-24T02:21:54.226Z,31.8
2019-02-24T02:22:44.258Z,31.8
2019-02-24T02:23:33.438Z,31.8
2019-02-24T02:24:24.347Z,31.8
2019-02-24T02:25:13.636Z,31.9
2019-02-24T02:26:03.413Z,31.9
2019-02-24T02:26:53.556Z,31.9
2019-02-24T02:27:44.127Z,31.9
2019-02-24T02:28:34.393Z,31.9
2019-02-24T02:29:23.357Z,31.9
2019-02-24T02:30:14.475Z,31.9
2019-02-24T02:31:05.142Z,31.9
2019-02-24T02:31:54.901Z,31.9
2019-02-24T02:32:44.950Z,31.9
2019-02-24T02:33:34.979Z,31.9
2019-02-24T02:34:24.482Z,31.9
2019-02-24T02:35:15.150Z,31.9
2019-02-24T02:36:04.907Z,31.9
2019-02-24T02:36:55.523Z,31.9
2019-02-24T02:37:45.253Z,31.9
2019-02-24T02:38:34.770Z,31.9
2019-02-24T02:39:25.442Z,31.9
2019-02-24T02:40:15.437Z,31.9
2019-02-24T02:41:05.550Z,31.9
2019-02-24T02:41:55.644Z,31.9
2019-02-24T02:42:45.353Z,31.9
2019-02-24T02:43:35.924Z,31.9
2019-02-24T02:44:26.022Z,31.9
2019-02-24T02:45:16.067Z,31.9
2019-02-24T02:46:05.597Z,31.9
2019-02-24T02:46:56.216Z,31.9
2019-02-24T02:47:45.984Z,31.9
2019-02-24T02:48:36.074Z,32
2019-02-24T02:49:25.792Z,32
2019-02-24T02:50:16.531Z,32.1
2019-02-24T02:51:06.284Z,32.1
2019-02-24T02:51:56.271Z,32.1
2019-02-24T02:52:46.338Z,32.3
2019-02-24T02:53:36.399Z,32.3
2019-02-24T02:54:25.909Z,32.4
2019-02-24T02:55:16.209Z,32.4
2019-02-24T02:56:06.596Z,32.5
2019-02-24T02:56:56.868Z,32.6
2019-02-24T02:57:46.932Z,32.6
2019-02-24T02:58:35.923Z,32.7
2019-02-24T02:59:27.063Z,32.8
2019-02-24T03:00:16.611Z,32.9
2019-02-24T03:01:06.576Z,32.9
2019-02-24T03:01:57.221Z,33
2019-02-24T03:02:46.718Z,33.1
2019-02-24T03:03:35.949Z,33.2
2019-02-24T03:04:26.836Z,33.3
2019-02-24T03:07:59.343Z,33.6
2019-02-24T03:08:49.376Z,33.8
2019-02-24T03:09:39.980Z,33.8
2019-02-24T03:10:29.683Z,33.9
2019-02-24T03:11:20.381Z,34.1
2019-02-24T03:12:09.908Z,34.1
2019-02-24T03:13:00.223Z,34.3
2019-02-24T03:13:49.668Z,34.3
2019-02-24T03:14:40.045Z,34.4
2019-02-24T03:15:29.500Z,34.6
2019-02-24T03:16:22.896Z,34.7
2019-02-24T03:17:10.235Z,34.8
2019-02-24T03:18:00.791Z,34.9
2019-02-24T03:18:50.616Z,35
2019-02-24T03:19:40.093Z,35.1
2019-02-24T03:20:30.410Z,35.2
2019-02-24T03:21:20.807Z,35.3
2019-02-24T03:22:10.797Z,35.4
2019-02-24T03:23:00.019Z,35.5
2019-02-24T03:23:50.951Z,35.6
2019-02-24T03:24:40.532Z,35.7
2019-02-24T03:25:31.082Z,35.8
2019-02-24T03:26:20.867Z,35.9
2019-02-24T03:27:10.900Z,36
2019-02-24T03:28:00.712Z,36.1
2019-02-24T03:28:51.022Z,36.2
2019-02-24T03:29:40.828Z,36.3
2019-02-24T03:30:30.976Z,36.4
2019-02-24T03:31:21.115Z,36.4
2019-02-24T03:32:11.328Z,36.4
2019-02-24T03:33:01.423Z,36.5
2019-02-24T03:33:52.050Z,36.6
2019-02-24T03:34:41.910Z,36.6
2019-02-24T03:35:31.182Z,36.6
2019-02-24T03:36:21.837Z,36.6
2019-02-24T03:37:11.560Z,36.6
2019-02-24T03:38:01.602Z,36.7
2019-02-24T03:38:51.936Z,36.7
2019-02-24T03:39:42.262Z,36.7
2019-02-24T03:40:31.771Z,36.7
2019-02-24T03:41:22.043Z,36.8
2019-02-24T03:42:12.436Z,36.8
2019-02-24T03:43:01.942Z,36.8
2019-02-24T03:43:52.408Z,36.8
2019-02-24T03:44:42.025Z,36.8
2019-02-24T03:45:32.413Z,36.8
2019-02-24T03:46:22.184Z,36.8
2019-02-24T03:47:12.491Z,36.8
2019-02-24T03:48:02.531Z,36.8
2019-02-24T03:48:52.906Z,36.8
2019-02-24T03:49:42.936Z,36.8
2019-02-24T03:50:32.189Z,36.8
2019-02-24T03:51:22.508Z,36.8
2019-02-24T03:52:13.115Z,36.8
2019-02-24T03:53:02.746Z,36.8
2019-02-24T03:53:52.953Z,36.8
2019-02-24T03:54:43.343Z,36.8
2019-02-24T03:55:33.051Z,36.8
2019-02-24T03:56:23.427Z,36.8
2019-02-24T03:57:13.205Z,36.8
2019-02-24T03:58:03.023Z,36.8
2019-02-24T03:58:53.008Z,36.8
2019-02-24T03:59:43.368Z,36.8
2019-02-24T04:00:33.146Z,36.8
2019-02-24T04:01:23.493Z,36.8
2019-02-24T04:02:13.800Z,36.8
2019-02-24T04:03:03.621Z,36.8
2019-02-24T04:03:53.665Z,36.8
2019-02-24T04:04:43.386Z,36.8
2019-02-24T04:05:33.762Z,36.8
2019-02-24T04:06:23.776Z,36.8
2019-02-24T04:07:13.845Z,36.8
2019-02-24T04:08:03.665Z,36.8
2019-02-24T04:08:54.042Z,36.8
2019-02-24T04:09:44.369Z,36.8
2019-02-24T04:10:33.252Z,36.8
2019-02-24T04:11:24.137Z,36.8
2019-02-24T04:12:14.180Z,36.8
2019-02-24T04:13:04.302Z,36.8
2019-02-24T04:13:53.854Z,36.8
2019-02-24T04:14:44.113Z,36.8
2019-02-24T04:15:34.154Z,36.8
2019-02-24T04:16:23.904Z,36.8
2019-02-24T04:17:14.238Z,36.8
2019-02-24T04:18:04.624Z,36.8
2019-02-24T04:18:54.294Z,36.8
2019-02-24T04:19:44.445Z,36.8
2019-02-24T04:20:34.794Z,36.8
2019-02-24T04:21:24.851Z,36.8
2019-02-24T04:22:15.179Z,36.8
2019-02-24T04:23:04.112Z,36.8
2019-02-24T04:23:54.997Z,36.7
2019-02-24T04:24:45.309Z,36.7
2019-02-24T04:25:34.806Z,36.7
2019-02-24T04:26:24.932Z,36.7
2019-02-24T04:27:17.301Z,36.7
2019-02-24T04:28:05.271Z,36.7
2019-02-24T04:28:55.588Z,36.7
2019-02-24T04:29:45.130Z,36.7
2019-02-24T04:30:34.426Z,36.7
2019-02-24T04:31:25.857Z,36.7
2019-02-24T04:32:15.566Z,36.7
2019-02-24T04:33:05.886Z,36.7
2019-02-24T04:33:55.686Z,36.7
2019-02-24T04:34:45.424Z,36.7
2019-02-24T04:35:35.616Z,36.7
2019-02-24T04:36:25.864Z,36.7
2019-02-24T04:37:15.621Z,36.6
2019-02-24T04:38:05.681Z,36.7
2019-02-24T04:38:55.453Z,36.7
2019-02-24T04:39:45.233Z,36.7
2019-02-24T04:40:36.411Z,36.6
2019-02-24T04:41:26.004Z,36.6
2019-02-24T04:42:16.244Z,36.6
2019-02-24T04:43:06.802Z,36.7
2019-02-24T04:43:56.655Z,36.6
2019-02-24T04:44:46.416Z,36.6
2019-02-24T04:45:36.441Z,36.6
2019-02-24T04:46:25.446Z,36.6
2019-02-24T04:47:16.874Z,36.6
2019-02-24T04:48:05.895Z,36.6
2019-02-24T04:48:56.232Z,36.6
2019-02-24T04:49:46.266Z,36.6
2019-02-24T04:50:36.056Z,36.6
2019-02-24T04:51:26.093Z,36.6
2019-02-24T04:52:16.142Z,36.6
2019-02-24T04:53:06.826Z,36.6
2019-02-24T04:53:55.698Z,36.6
2019-02-24T04:54:46.384Z,36.6
2019-02-24T04:55:37.430Z,36.6
2019-02-24T04:56:26.992Z,36.6
2019-02-24T04:57:17.280Z,36.6
2019-02-24T04:58:07.046Z,36.6
2019-02-24T04:58:57.082Z,36.6
2019-02-24T04:59:47.425Z,36.6
2019-02-24T05:00:37.762Z,36.6
2019-02-24T05:01:27.810Z,36.6
2019-02-24T05:02:17.589Z,36.6
2019-02-24T05:03:07.676Z,36.6
2019-02-24T05:03:57.450Z,36.6
2019-02-24T05:04:47.224Z,36.6
2019-02-24T05:05:38.094Z,36.6
2019-02-24T05:06:27.615Z,36.6
2019-02-24T05:07:17.964Z,36.5
2019-02-24T05:08:08.004Z,36.5
2019-02-24T05:08:58.080Z,36.5
2019-02-24T05:09:47.825Z,36.5
2019-02-24T05:10:38.192Z,36.5
2019-02-24T05:11:27.972Z,36.5
2019-02-24T05:12:18.272Z,36.5
2019-02-24T05:13:08.419Z,36.5
2019-02-24T05:13:58.113Z,36.5
2019-02-24T05:14:48.754Z,36.5
2019-02-24T05:15:38.246Z,36.5
2019-02-24T05:16:28.613Z,36.5
2019-02-24T05:17:18.927Z,36.5
2019-02-24T05:18:08.152Z,36.5
2019-02-24T05:18:58.493Z,36.5
2019-02-24T05:19:49.055Z,36.4
2019-02-24T05:20:39.104Z,36.4
2019-02-24T05:21:29.189Z,36.4
2019-02-24T05:22:18.988Z,36.4
2019-02-24T05:23:08.753Z,36.4
2019-02-24T05:23:59.085Z,36.4
2019-02-24T05:24:48.861Z,36.4
2019-02-24T05:25:38.997Z,36.4
2019-02-24T05:26:29.272Z,36.4
2019-02-24T05:27:18.747Z,36.4
2019-02-24T05:28:09.358Z,36.4
2019-02-24T05:28:59.402Z,36.4
2019-02-24T05:29:52.612Z,36.4
2019-02-24T05:30:39.273Z,36.4
2019-02-24T05:31:29.865Z,36.4
2019-02-24T05:32:19.393Z,36.4
2019-02-24T05:33:09.412Z,36.4
2019-02-24T05:33:59.470Z,36.4
2019-02-24T05:34:50.164Z,36.4
2019-02-24T05:35:39.874Z,36.4
2019-02-24T05:36:32.415Z,36.4
2019-02-24T05:37:20.002Z,36.4
2019-02-24T05:38:09.796Z,36.4
2019-02-24T05:39:00.152Z,36.4
2019-02-24T05:39:50.419Z,36.4
2019-02-24T05:40:39.909Z,36.4
2019-02-24T05:41:30.252Z,36.4
2019-02-24T05:42:20.604Z,36.3
2019-02-24T05:43:10.656Z,36.3
2019-02-24T05:44:00.165Z,36.3
2019-02-24T05:44:50.804Z,36.3
2019-02-24T05:45:40.576Z,36.3
2019-02-24T05:46:30.612Z,36.3
2019-02-24T05:47:20.172Z,36.3
2019-02-24T05:48:11.026Z,36.3
2019-02-24T05:49:01.027Z,36.3
2019-02-24T05:49:50.569Z,36.3
2019-02-24T05:50:40.597Z,36.3
2019-02-24T05:51:30.427Z,36.3
2019-02-24T05:52:21.010Z,36.3
2019-02-24T05:53:10.282Z,36.3
2019-02-24T05:54:00.604Z,36.3
2019-02-24T05:54:53.345Z,36.3
2019-02-24T05:55:41.208Z,36.3
2019-02-24T05:56:31.578Z,36.3
2019-02-24T05:57:21.103Z,36.3
2019-02-24T05:58:11.247Z,36.3
2019-02-24T05:59:01.446Z,36.3
2019-02-24T06:00:01.753Z,36.3
2019-02-24T06:00:41.282Z,36.3
2019-02-24T06:01:31.913Z,36.3
2019-02-24T06:02:21.665Z,36.3
2019-02-24T06:03:11.204Z,36.3
2019-02-24T06:04:01.246Z,36.3
2019-02-24T06:05:59.678Z,36.2
2019-02-24T06:06:48.923Z,36.2
2019-02-24T06:07:39.780Z,36.2
2019-02-24T06:08:29.806Z,36.2
2019-02-24T06:09:19.607Z,36.2
2019-02-24T06:10:09.640Z,36.2
2019-02-24T06:11:00.008Z,36.2
2019-02-24T06:11:49.790Z,36.2
2019-02-24T06:12:40.363Z,36.2
2019-02-24T06:13:29.600Z,36.2
2019-02-24T06:14:19.632Z,36.2
2019-02-24T06:15:09.544Z,36.2
2019-02-24T06:15:59.510Z,36.2
2019-02-24T06:16:49.837Z,36.2
2019-02-24T06:17:40.418Z,36.1
2019-02-24T06:18:30.027Z,36.1
2019-02-24T06:19:19.759Z,36.1
2019-02-24T06:20:10.392Z,36.1
2019-02-24T06:21:00.452Z,36.1
2019-02-24T06:21:50.152Z,36.1
2019-02-24T06:22:39.427Z,36.1
2019-02-24T06:23:31.073Z,36.1
2019-02-24T06:24:20.336Z,36.1
2019-02-24T06:25:10.621Z,36.1
2019-02-24T06:26:01.238Z,36.1
2019-02-24T06:26:51.112Z,36.1
2019-02-24T06:27:41.100Z,36.1
2019-02-24T06:28:31.519Z,36.1
2019-02-24T06:29:20.955Z,36.1
2019-02-24T06:30:11.894Z,36.1
2019-02-24T06:31:01.339Z,36.1
2019-02-24T06:31:50.594Z,36.1
2019-02-24T06:32:41.202Z,36.1
2019-02-24T06:33:31.768Z,36.1
2019-02-24T06:34:21.294Z,36.1
2019-02-24T06:35:11.349Z,36.1
2019-02-24T06:36:01.158Z,36.1
2019-02-24T06:36:51.459Z,36
2019-02-24T06:37:41.796Z,36.1
2019-02-24T06:38:32.096Z,36
2019-02-24T06:39:21.646Z,36
2019-02-24T06:40:11.478Z,36
2019-02-24T06:41:03.694Z,36.1
2019-02-24T06:41:52.341Z,36
2019-02-24T06:42:41.849Z,36
2019-02-24T06:43:30.867Z,36
2019-02-24T06:44:22.254Z,36
2019-02-24T06:45:12.005Z,36
2019-02-24T06:46:01.771Z,36
2019-02-24T06:46:51.861Z,36
2019-02-24T06:47:42.564Z,35.9
2019-02-24T06:48:32.551Z,36
2019-02-24T06:49:21.548Z,35.9
2019-02-24T06:50:12.401Z,35.9
2019-02-24T06:51:02.170Z,35.9
2019-02-24T06:51:52.502Z,35.9
2019-02-24T06:52:43.010Z,35.9
2019-02-24T06:53:32.385Z,35.9
2019-02-24T06:54:22.623Z,35.9
2019-02-24T06:55:12.203Z,35.9
2019-02-24T06:56:02.497Z,35.9
2019-02-24T06:56:52.515Z,35.9
2019-02-24T06:57:42.887Z,35.9
2019-02-24T06:58:32.170Z,35.9
2019-02-24T06:59:21.698Z,35.9
2019-02-24T07:00:19.830Z,35.9
2019-02-24T07:01:02.653Z,35.9
2019-02-24T07:01:51.820Z,35.9
2019-02-24T07:02:43.260Z,35.9
2019-02-24T07:03:32.570Z,35.9
2019-02-24T07:05:59.412Z,35.9
2019-02-24T07:06:48.995Z,35.9
2019-02-24T07:07:39.027Z,35.9
2019-02-24T07:08:28.819Z,35.8
2019-02-24T07:09:21.096Z,35.8
2019-02-24T07:10:09.713Z,35.8
2019-02-24T07:10:59.190Z,35.8
2019-02-24T07:11:49.012Z,35.8
2019-02-24T07:12:39.395Z,35.1
2019-02-24T07:13:29.914Z,21.3
2019-02-24T07:14:18.865Z,28.4
2019-02-24T07:15:09.576Z,42.5
2019-02-24T07:15:59.556Z,49
2019-02-24T07:16:49.855Z,50.5
2019-02-24T07:17:40.714Z,50.6
2019-02-24T07:18:29.987Z,50.3
2019-02-24T07:19:19.207Z,49.8
2019-02-24T07:20:10.864Z,49.3
2019-02-24T07:21:00.701Z,48.8
2019-02-24T07:21:50.709Z,48.3
2019-02-24T07:22:40.444Z,47.8
2019-02-24T07:23:31.074Z,47.3
2019-02-24T07:24:20.903Z,46.9
2019-02-24T07:25:10.451Z,46.5
2019-02-24T07:26:00.702Z,46.1
2019-02-24T07:26:51.030Z,45.8
2019-02-24T07:27:40.816Z,45.3
2019-02-24T07:28:30.825Z,45
2019-02-24T07:29:21.473Z,44.7
2019-02-24T07:30:10.988Z,44.4
2019-02-24T07:31:01.649Z,44
2019-02-24T07:31:51.068Z,43.8
2019-02-24T07:32:41.451Z,43.5
2019-02-24T07:33:31.788Z,43.3
2019-02-24T07:34:21.329Z,43
2019-02-24T07:35:11.897Z,42.8
2019-02-24T07:36:01.682Z,42.6
2019-02-24T07:36:51.787Z,42.3
2019-02-24T07:37:41.237Z,37.5
2019-02-24T07:38:32.093Z,47.2
2019-02-24T07:39:22.178Z,54.4
2019-02-24T07:40:12.218Z,56.3
2019-02-24T07:41:02.006Z,54
2019-02-24T07:41:51.745Z,50.6
2019-02-24T07:42:42.381Z,48.7
2019-02-24T07:43:31.455Z,47.6
2019-02-24T07:44:21.726Z,47
2019-02-24T07:45:12.280Z,46.4
2019-02-24T07:46:01.541Z,46
2019-02-24T07:46:51.345Z,45.6
2019-02-24T07:47:42.432Z,45.2
2019-02-24T07:48:31.917Z,44.8
2019-02-24T07:49:22.537Z,44.4
2019-02-24T07:50:12.135Z,44.1
2019-02-24T07:51:02.137Z,43.8
2019-02-24T07:51:53.035Z,43.6
2019-02-24T07:52:42.287Z,44.4
2019-02-24T07:53:32.815Z,53.3
2019-02-24T07:54:23.159Z,58.4
2019-02-24T07:55:12.935Z,59.8
2019-02-24T07:56:02.507Z,58.7
2019-02-24T07:56:53.082Z,56.5
2019-02-24T07:57:43.446Z,54.9
2019-02-24T07:58:33.432Z,54.3
2019-02-24T07:59:23.508Z,54.2
2019-02-24T08:00:13.002Z,54.7
2019-02-24T08:01:03.339Z,55.4
2019-02-24T08:01:53.185Z,56.1
2019-02-24T08:02:43.257Z,56.4
2019-02-24T08:03:33.522Z,56.6
2019-02-24T08:04:23.824Z,56.5
2019-02-24T08:05:28.554Z,56.4
2019-02-24T08:06:03.944Z,56.5
2019-02-24T08:06:54.064Z,56.6
2019-02-24T08:07:43.784Z,56.8
2019-02-24T08:08:33.556Z,57
2019-02-24T08:09:24.162Z,57.2
2019-02-24T08:10:13.951Z,57.3
2019-02-24T08:11:03.993Z,57.4
2019-02-24T08:11:54.076Z,57.5
2019-02-24T08:12:44.401Z,57.6
2019-02-24T08:13:34.171Z,57.7
2019-02-24T08:14:24.251Z,57.8
2019-02-24T08:15:14.609Z,57.9
2019-02-24T08:16:04.634Z,58
2019-02-24T08:16:54.466Z,58.1
2019-02-24T08:17:44.237Z,58.2
2019-02-24T08:18:34.548Z,58.3
2019-02-24T08:19:24.598Z,58.4
2019-02-24T08:20:14.659Z,58.5
2019-02-24T08:21:06.205Z,58.6
2019-02-24T08:21:54.755Z,58.8
2019-02-24T08:22:45.063Z,58.8
2019-02-24T08:23:34.653Z,58.9
2019-02-24T08:24:25.195Z,58.9
2019-02-24T08:25:14.680Z,59.1
2019-02-24T08:26:05.295Z,59.3
2019-02-24T08:26:55.375Z,59.5
2019-02-24T08:27:45.412Z,59.6
2019-02-24T08:28:34.910Z,59.8
2019-02-24T08:29:25.031Z,59.9
2019-02-24T08:30:15.593Z,60.1
2019-02-24T08:31:05.661Z,60.1
2019-02-24T08:31:55.125Z,60.2
2019-02-24T08:32:45.510Z,60.3
2019-02-24T08:33:35.800Z,60.3
2019-02-24T08:34:25.308Z,60.1
2019-02-24T08:35:15.430Z,59.6
2019-02-24T08:36:05.725Z,58.4
2019-02-24T08:36:55.588Z,57.3
2019-02-24T08:37:45.538Z,57.2
2019-02-24T08:38:35.857Z,57.7
2019-02-24T08:39:25.956Z,58.4
2019-02-24T08:40:15.840Z,59
2019-02-24T08:41:05.813Z,59.5
2019-02-24T08:41:55.817Z,59.9
2019-02-24T08:42:46.423Z,60.2
2019-02-24T08:43:36.197Z,60.3
2019-02-24T08:44:28.582Z,60.1
2019-02-24T08:45:16.065Z,59.4
2019-02-24T08:46:06.162Z,58.4
2019-02-24T08:46:55.949Z,57.9
2019-02-24T08:48:35.577Z,58.2
2019-02-24T08:49:26.389Z,58.8
2019-02-24T08:50:16.927Z,59.1
2019-02-24T08:51:07.041Z,59.2
2019-02-24T08:51:57.140Z,59.3
2019-02-24T08:52:47.116Z,59.6
2019-02-24T08:53:36.931Z,59.6
2019-02-24T08:54:27.226Z,59.5
2019-02-24T08:55:17.077Z,59.6
2019-02-24T08:56:06.904Z,59.8
2019-02-24T08:56:59.299Z,60.3
2019-02-24T08:57:47.443Z,60.6
2019-02-24T08:58:37.554Z,60.9
2019-02-24T08:59:27.589Z,61.2
2019-02-24T09:00:17.405Z,61.4
2019-02-24T09:01:07.419Z,61.5
2019-02-24T09:01:57.776Z,61.6
2019-02-24T09:02:47.331Z,61.8
2019-02-24T09:03:36.824Z,61.9
2019-02-24T09:04:27.919Z,62
2019-02-24T09:05:16.437Z,62.1
2019-02-24T09:06:08.013Z,62.4
2019-02-24T09:06:57.847Z,62.5
2019-02-24T09:07:48.151Z,62.6
2019-02-24T09:08:37.147Z,62.7
2019-02-24T09:09:27.961Z,62.8
2019-02-24T09:10:18.298Z,62.8
2019-02-24T09:11:08.398Z,62.9
2019-02-24T09:11:57.658Z,63
2019-02-24T09:12:47.929Z,63.1
2019-02-24T09:13:38.308Z,63.2
2019-02-24T09:14:28.618Z,62.9
2019-02-24T09:15:18.218Z,61.7
2019-02-24T09:16:08.816Z,60.3
2019-02-24T09:16:58.491Z,59.6
2019-02-24T09:17:48.635Z,59.7
2019-02-24T09:18:38.886Z,59.9
2019-02-24T09:19:28.697Z,59.9
2019-02-24T09:20:19.107Z,59.8
2019-02-24T09:21:08.823Z,59.5
2019-02-24T09:21:59.162Z,58.9
2019-02-24T09:22:48.908Z,58.8
2019-02-24T09:23:38.653Z,58.6
2019-02-24T09:24:27.930Z,59.1
2019-02-24T09:25:18.323Z,59.8
2019-02-24T09:26:09.126Z,60.6
2019-02-24T09:26:59.160Z,61.4
2019-02-24T09:27:49.495Z,62
2019-02-24T09:28:38.980Z,61.9
2019-02-24T09:29:28.360Z,61.6
2019-02-24T09:30:18.903Z,61.5
2019-02-24T09:31:08.720Z,61
2019-02-24T09:31:58.720Z,60.3
2019-02-24T09:32:48.990Z,60.1
2019-02-24T09:33:39.960Z,60.6
2019-02-24T09:34:29.990Z,61.5
2019-02-24T09:35:18.760Z,62.4
2019-02-24T09:36:09.492Z,62.9
2019-02-24T09:36:59.559Z,63.3
2019-02-24T09:37:49.884Z,63.4
2019-02-24T09:38:40.013Z,63.4
2019-02-24T09:39:29.994Z,63.4
2019-02-24T09:40:20.053Z,63.6
2019-02-24T09:41:09.839Z,63.8
2019-02-24T09:42:00.002Z,63.9
2019-02-24T09:42:49.954Z,63.4
2019-02-24T09:43:40.564Z,62.6
2019-02-24T09:44:30.149Z,61.9
2019-02-24T09:45:20.681Z,61.9
2019-02-24T09:46:10.786Z,62.4
2019-02-24T09:47:00.787Z,62.9
2019-02-24T09:47:52.942Z,63.5
2019-02-24T09:48:40.936Z,64
2019-02-24T09:49:31.076Z,64.4
2019-02-24T09:50:20.999Z,64.7
2019-02-24T09:51:10.806Z,64.8
2019-02-24T09:52:00.861Z,64.9
2019-02-24T09:52:50.378Z,65.1
2019-02-24T09:53:41.241Z,65.1
2019-02-24T09:54:31.291Z,65.1
2019-02-24T09:55:21.374Z,65.2
2019-02-24T09:56:11.400Z,65.3
2019-02-24T09:57:01.453Z,65.2
2019-02-24T09:57:51.551Z,64.9
2019-02-24T09:58:41.584Z,64.8
2019-02-24T09:59:31.083Z,64.5
2019-02-24T10:00:23.889Z,64.3
2019-02-24T10:01:17.273Z,64.3
2019-02-24T10:02:01.800Z,64.5
2019-02-24T10:02:51.565Z,64.8
2019-02-24T10:03:41.365Z,65.1
2019-02-24T10:04:31.708Z,65.4
2019-02-24T10:06:59.520Z,65.6
2019-02-24T10:07:49.510Z,65.7
2019-02-24T10:08:39.850Z,65.7
2019-02-24T10:09:29.623Z,65.8
2019-02-24T10:10:19.690Z,65.8
2019-02-24T10:11:09.741Z,65.9
2019-02-24T10:11:59.877Z,66
2019-02-24T10:12:50.250Z,66.1
2019-02-24T10:13:40.033Z,66.2
2019-02-24T10:14:30.035Z,66.2
2019-02-24T10:15:20.382Z,66.3
2019-02-24T10:16:10.352Z,66.4
2019-02-24T10:16:59.927Z,66.4
2019-02-24T10:17:50.255Z,66.5
2019-02-24T10:18:39.981Z,66.6
2019-02-24T10:19:31.756Z,66.7
2019-02-24T10:20:20.655Z,66.7
2019-02-24T10:21:10.002Z,66.8
2019-02-24T10:22:00.481Z,66.9
2019-02-24T10:22:50.817Z,67
2019-02-24T10:23:40.335Z,67.1
2019-02-24T10:24:30.682Z,67.1
2019-02-24T10:25:20.992Z,67.2
2019-02-24T10:26:10.204Z,67.3
2019-02-24T10:27:01.090Z,67.3
2019-02-24T10:27:51.154Z,67.4
2019-02-24T10:28:41.209Z,67.4
2019-02-24T10:29:31.000Z,67.5
2019-02-24T10:30:21.339Z,67.6
2019-02-24T10:31:20.296Z,67.6
2019-02-24T10:32:00.694Z,67.8
2019-02-24T10:32:51.291Z,67.9
2019-02-24T10:33:40.994Z,67.8
2019-02-24T10:34:31.327Z,67.9
2019-02-24T10:35:21.129Z,67.9
2019-02-24T10:36:11.491Z,67.9
2019-02-24T10:37:01.766Z,68
2019-02-24T10:37:51.564Z,68
2019-02-24T10:38:41.599Z,67.9
2019-02-24T10:39:35.893Z,67.9
2019-02-24T10:40:21.486Z,67.9
2019-02-24T10:41:11.516Z,67.9
2019-02-24T10:42:02.159Z,68.1
2019-02-24T10:42:51.894Z,68.1
2019-02-24T10:43:41.959Z,68.1
2019-02-24T10:44:32.055Z,68.2
2019-02-24T10:45:22.085Z,68.2
2019-02-24T10:46:14.279Z,68.1
2019-02-24T10:47:04.778Z,68
2019-02-24T10:47:51.556Z,67.9
2019-02-24T10:48:42.370Z,67.8
2019-02-24T10:49:32.644Z,67.7
2019-02-24T10:50:22.420Z,67.3
2019-02-24T10:51:11.933Z,66.6
2019-02-24T10:52:02.036Z,65.9
2019-02-24T10:52:52.931Z,65.3
2019-02-24T10:53:42.918Z,64.9
2019-02-24T10:54:32.675Z,64.9
2019-02-24T10:55:23.066Z,65
2019-02-24T10:56:13.085Z,65.2
2019-02-24T10:57:02.572Z,65.4
2019-02-24T10:57:52.938Z,65.7
2019-02-24T10:58:43.004Z,65.8
2019-02-24T10:59:33.310Z,65.8
2019-02-24T11:00:23.245Z,65.8
2019-02-24T11:01:13.158Z,65.8
2019-02-24T11:02:02.969Z,65.8
2019-02-24T11:02:53.268Z,65.8
2019-02-24T11:03:43.329Z,65.9
2019-02-24T11:04:33.407Z,66
2019-02-24T11:05:23.504Z,66.1
2019-02-24T11:06:13.208Z,66.4
2019-02-24T11:07:03.590Z,66.6
2019-02-24T11:07:53.617Z,66.6
2019-02-24T11:08:43.707Z,66.3
2019-02-24T11:09:33.699Z,65.9
2019-02-24T11:10:24.042Z,65.6
2019-02-24T11:11:13.845Z,65.3
2019-02-24T11:12:04.166Z,65.3
2019-02-24T11:12:53.925Z,65.4
2019-02-24T11:13:43.982Z,65.5
2019-02-24T11:14:34.047Z,65.6
2019-02-24T11:15:23.182Z,65.6
2019-02-24T11:16:13.459Z,65.6